< < Back
Terminal Aerodrome Forecast


Current Version              Previous Versions:   1  2  3  4  5  6  7  8  9  

Terminal Aerodrome Forecast

762
FTUS44 KOHX 180500
TAFCSV
TAF
KCSV 180520Z 1806/1906 VRB03KT P6SM BKN250
     FM181000 VRB03KT P6SM BKN040=



Latest METAR

764
SAUS70 KWBC 190900 RRL
MTRCSV
METAR KCSV 190853Z AUTO 36003KT 10SM CLR 09/04 A3017 RMK AO2 SLP208
T00940044 55003


USA.gov is the U.S. government's official web portal to all federal, state and local government web resources and services.